Terminal Aerodrome Forecast
Issued by NWS Atlanta, GA

Home | Current Version | Previous Version | Text Only | Print | Product List | Glossary On
Versions: 1 2 3 4 5 6 7 8 9 10 11 12 13 14 15
000
FTUS42 KFFC 272300
TAFCSG
TAF
KCSG 272324Z 2800/2824 27008KT P6SM FEW070
     FM281400 28009G16KT P6SM SCT040
     FM281700 29012G20KT P6SM VCSH BKN050 PROB30 2819/2824 6SM TSRA
      BKN040CB=

USA.gov is the U.S. government's official web portal to all federal, state and local government web resources and services.